Time;durP1;ratioP1;P1;durP2;ratioP2;P2;SDS_P1;SDS_P2;PMS_P1;PMS_P2;Temp;Humidity;BMP_temperature;BMP_pressure;BME280_temperature;BME280_humidity;BME280_pressure;Samples;Min_cycle;Max_cycle;Signal;HPM_P1;HPM_P2
2022/07/05 00:03:00;;;;;;;13.93;3.70;;;;;;;;;;10136582;28;20053;-75
2022/07/05 00:07:54;;;;;;;7.35;3.50;;;;;;;;;;10148436;28;20040;-75
2022/07/05 00:12:48;;;;;;;16.00;4.72;;;;;;;;;;10148093;28;20058;-75
2022/07/05 00:17:42;;;;;;;8.57;3.30;;;;;;;;;;10146322;28;20433;-75
2022/07/05 00:22:36;;;;;;;10.27;3.90;;;;;;;;;;10141130;28;20508;-76
2022/07/05 00:27:30;;;;;;;11.32;4.72;;;;;;;;;;10134818;28;20080;-76
2022/07/05 00:32:23;;;;;;;8.00;5.53;;;;;;;;;;10148773;28;20052;-76
2022/07/05 00:37:17;;;;;;;8.73;5.00;;;;;;;;;;10133581;28;20044;-76
2022/07/05 00:42:10;;;;;;;10.13;5.03;;;;;;;;;;10151225;28;20488;-76
2022/07/05 00:47:05;;;;;;;9.80;5.65;;;;;;;;;;10132643;28;20148;-76
2022/07/05 00:51:59;;;;;;;9.57;6.10;;;;;;;;;;10108860;28;20049;-73
2022/07/05 00:57:12;;;;;;;10.68;5.72;;;;;;;;;;10137060;28;20052;-67
2022/07/05 01:02:06;;;;;;;10.55;5.55;;;;;;;;;;10127432;28;20049;-67
2022/07/05 01:07:03;;;;;;;9.10;5.60;;;;;;;;;;10127298;28;20040;-67
2022/07/05 01:11:57;;;;;;;7.07;5.43;;;;;;;;;;10150571;28;20055;-69
2022/07/05 01:16:53;;;;;;;7.28;4.68;;;;;;;;;;10143754;28;20052;-67
2022/07/05 01:21:48;;;;;;;6.38;4.32;;;;;;;;;;10143073;28;20037;-69
2022/07/05 01:26:45;;;;;;;9.43;4.05;;;;;;;;;;10142466;28;20060;-67
2022/07/05 01:31:40;;;;;;;7.65;3.92;;;;;;;;;;10124597;28;20136;-67
2022/07/05 01:36:34;;;;;;;8.40;3.92;;;;;;;;;;10136680;28;20052;-67
2022/07/05 01:41:29;;;;;;;6.93;3.65;;;;;;;;;;10125320;28;20514;-67
2022/07/05 01:46:25;;;;;;;7.10;3.55;;;;;;;;;;10139430;28;20064;-67
2022/07/05 01:51:26;;;;;;;6.72;3.58;;;;;;;;;;10118041;28;20052;-67
2022/07/05 01:56:19;;;;;;;15.10;3.35;;;;;;;;;;10120948;28;20040;-67
2022/07/05 02:01:13;;;;;;;7.75;3.58;;;;;;;;;;10120428;28;20127;-69
2022/07/05 02:06:10;;;;;;;6.20;3.72;;;;;;;;;;10132808;28;20044;-67
2022/07/05 02:11:04;;;;;;;8.30;4.28;;;;;;;;;;10141026;28;20056;-66
2022/07/05 02:15:58;;;;;;;5.18;3.25;;;;;;;;;;10142044;28;20446;-67
2022/07/05 02:20:52;;;;;;;4.20;2.80;;;;;;;;;;10122052;28;20044;-67
2022/07/05 02:25:46;;;;;;;4.45;2.67;;;;;;;;;;10128715;28;20110;-69
2022/07/05 02:30:42;;;;;;;5.80;3.13;;;;;;;;;;10128408;28;20473;-66
2022/07/05 02:35:37;;;;;;;4.75;3.00;;;;;;;;;;10147221;28;20135;-66
2022/07/05 02:40:31;;;;;;;5.68;3.38;;;;;;;;;;10130674;28;20040;-66
2022/07/05 02:45:26;;;;;;;10.35;4.07;;;;;;;;;;10110030;28;20052;-67
2022/07/05 02:50:24;;;;;;;6.47;3.28;;;;;;;;;;10106498;28;20045;-67
2022/07/05 02:55:18;;;;;;;9.98;3.42;;;;;;;;;;10110804;28;20044;-67
2022/07/05 03:00:12;;;;;;;8.45;3.67;;;;;;;;;;10145972;28;20491;-67
2022/07/05 03:05:10;;;;;;;6.22;3.60;;;;;;;;;;10119354;28;20056;-67
2022/07/05 03:10:08;;;;;;;5.70;3.30;;;;;;;;;;10114585;28;20056;-69
2022/07/05 03:15:03;;;;;;;5.82;3.88;;;;;;;;;;10105961;28;20045;-67
2022/07/05 03:20:06;;;;;;;11.30;5.20;;;;;;;;;;10109492;28;20102;-67
2022/07/05 03:24:59;;;;;;;9.88;4.65;;;;;;;;;;10108797;28;20104;-70
2022/07/05 03:29:55;;;;;;;7.85;3.55;;;;;;;;;;10142642;28;20087;-70
2022/07/05 03:34:51;;;;;;;5.70;3.65;;;;;;;;;;10126008;28;20048;-68
2022/07/05 03:39:45;;;;;;;6.75;3.47;;;;;;;;;;10119140;28;20045;-69
2022/07/05 03:44:39;;;;;;;12.73;4.03;;;;;;;;;;10127244;28;20048;-69
2022/07/05 03:49:33;;;;;;;10.70;3.30;;;;;;;;;;10119192;28;20063;-69
2022/07/05 03:54:27;;;;;;;13.20;3.40;;;;;;;;;;10119764;28;20403;-70
2022/07/05 03:59:20;;;;;;;5.43;3.13;;;;;;;;;;10122006;28;20048;-69
2022/07/05 04:04:14;;;;;;;5.75;2.80;;;;;;;;;;10124033;28;20044;-68
2022/07/05 04:09:08;;;;;;;6.13;3.38;;;;;;;;;;10128484;28;20051;-67
2022/07/05 04:14:03;;;;;;;10.98;4.05;;;;;;;;;;10122586;28;20067;-67
2022/07/05 04:18:57;;;;;;;9.10;4.07;;;;;;;;;;10111479;28;20040;-67
2022/07/05 04:23:53;;;;;;;6.72;4.93;;;;;;;;;;10106108;28;20427;-69
2022/07/05 04:28:47;;;;;;;5.50;2.95;;;;;;;;;;10110166;28;20084;-70
2022/07/05 04:33:52;;;;;;;10.85;3.25;;;;;;;;;;10106881;28;20411;-68
2022/07/05 04:38:53;;;;;;;11.23;3.08;;;;;;;;;;10120018;28;20088;-68
2022/07/05 04:43:48;;;;;;;8.82;2.80;;;;;;;;;;10133672;28;20052;-68
2022/07/05 04:48:41;;;;;;;9.70;4.10;;;;;;;;;;10117120;28;20132;-70
2022/07/05 04:53:36;;;;;;;11.23;2.88;;;;;;;;;;10107325;28;20044;-70
2022/07/05 04:58:31;;;;;;;7.10;2.80;;;;;;;;;;10134432;28;20114;-70
2022/07/05 05:03:25;;;;;;;15.68;2.92;;;;;;;;;;10132054;28;20055;-69
2022/07/05 05:08:19;;;;;;;7.97;2.90;;;;;;;;;;10120373;28;20048;-70
2022/07/05 05:13:13;;;;;;;8.32;3.35;;;;;;;;;;10131341;28;20091;-70
2022/07/05 05:18:07;;;;;;;5.18;2.33;;;;;;;;;;10129597;28;20395;-69
2022/07/05 05:23:01;;;;;;;5.97;2.67;;;;;;;;;;10127936;28;20102;-69
2022/07/05 05:27:55;;;;;;;6.63;2.40;;;;;;;;;;10131298;28;20495;-71
2022/07/05 05:32:49;;;;;;;7.70;2.92;;;;;;;;;;10136114;28;20419;-69
2022/07/05 05:37:52;;;;;;;8.20;2.60;;;;;;;;;;10129841;28;20049;-68
2022/07/05 05:42:46;;;;;;;5.57;2.50;;;;;;;;;;10126312;28;20629;-70
2022/07/05 05:48:03;;;;;;;11.38;3.50;;;;;;;;;;10129507;28;20460;-70
2022/07/05 05:52:57;;;;;;;7.32;2.50;;;;;;;;;;10127924;28;20138;-70
2022/07/05 05:57:51;;;;;;;5.78;3.05;;;;;;;;;;10130729;28;20144;-67
2022/07/05 06:02:46;;;;;;;4.75;2.35;;;;;;;;;;10128216;28;20095;-68
2022/07/05 06:07:45;;;;;;;6.53;2.70;;;;;;;;;;10126391;28;20048;-68
2022/07/05 06:12:38;;;;;;;7.82;3.15;;;;;;;;;;10127994;28;20102;-69
2022/07/05 06:17:37;;;;;;;7.88;3.10;;;;;;;;;;10122871;28;20132;-68
2022/07/05 06:22:32;;;;;;;10.02;2.67;;;;;;;;;;10136919;28;20127;-68
2022/07/05 06:27:25;;;;;;;3.72;1.95;;;;;;;;;;10113493;28;20059;-71
2022/07/05 06:32:24;;;;;;;6.22;2.45;;;;;;;;;;10133457;28;20056;-68
2022/07/05 06:37:18;;;;;;;5.38;2.60;;;;;;;;;;10134640;28;20040;-68
2022/07/05 06:42:13;;;;;;;8.50;2.63;;;;;;;;;;10125754;28;20126;-68
2022/07/05 06:47:07;;;;;;;5.05;2.75;;;;;;;;;;10120448;28;20048;-69
2022/07/05 06:52:01;;;;;;;11.55;2.50;;;;;;;;;;10131066;28;20041;-69
2022/07/05 06:56:56;;;;;;;5.90;3.13;;;;;;;;;;10122282;28;20045;-69
2022/07/05 07:02:10;;;;;;;6.85;2.90;;;;;;;;;;10142424;28;20050;-69
2022/07/05 07:12:32;;;;;;;10.35;4.05;;;;;;;;;;10121384;28;20045;-70
2022/07/05 07:17:27;;;;;;;10.70;4.32;;;;;;;;;;10111412;28;20553;-70
2022/07/05 07:22:22;;;;;;;20.15;4.07;;;;;;;;;;10128784;28;20123;-69
2022/07/05 07:27:17;;;;;;;8.65;2.85;;;;;;;;;;10129120;28;20062;-68
2022/07/05 07:32:14;;;;;;;4.85;2.85;;;;;;;;;;10130701;28;20048;-70
2022/07/05 07:37:13;;;;;;;5.82;2.80;;;;;;;;;;10121002;28;20049;-70
2022/07/05 07:42:08;;;;;;;7.75;2.83;;;;;;;;;;10140461;28;20076;-70
2022/07/05 07:47:02;;;;;;;22.88;3.30;;;;;;;;;;10134788;28;20476;-69
2022/07/05 07:51:56;;;;;;;8.43;2.40;;;;;;;;;;10140862;28;20456;-70
2022/07/05 07:56:50;;;;;;;7.30;1.98;;;;;;;;;;10129731;28;20037;-69
2022/07/05 08:01:44;;;;;;;4.13;2.22;;;;;;;;;;10145905;28;20507;-70
2022/07/05 08:06:38;;;;;;;6.90;1.92;;;;;;;;;;10127530;28;20041;-70
2022/07/05 08:11:32;;;;;;;6.97;2.38;;;;;;;;;;10126871;28;20063;-68
2022/07/05 08:16:27;;;;;;;3.88;1.88;;;;;;;;;;10131853;28;20544;-69
2022/07/05 08:21:30;;;;;;;5.65;1.95;;;;;;;;;;10132051;28;20049;-70
2022/07/05 08:26:32;;;;;;;3.88;2.33;;;;;;;;;;10138199;28;20106;-70
2022/07/05 08:31:28;;;;;;;3.60;1.90;;;;;;;;;;10128002;28;20112;-70
2022/07/05 08:36:22;;;;;;;9.30;3.05;;;;;;;;;;10132644;28;20044;-70
2022/07/05 08:41:21;;;;;;;5.32;2.00;;;;;;;;;;10127604;28;20510;-70
2022/07/05 08:46:16;;;;;;;6.85;2.40;;;;;;;;;;10126780;28;20080;-70
2022/07/05 08:51:12;;;;;;;7.40;2.20;;;;;;;;;;10139363;28;20048;-70
2022/07/05 08:56:10;;;;;;;7.00;2.83;;;;;;;;;;10105596;28;20123;-70
2022/07/05 09:01:05;;;;;;;3.65;1.92;;;;;;;;;;10136085;28;20055;-70
2022/07/05 09:06:00;;;;;;;7.63;2.70;;;;;;;;;;10124246;28;20095;-70
2022/07/05 09:10:53;;;;;;;9.18;3.63;;;;;;;;;;10129673;28;20056;-70
2022/07/05 09:15:47;;;;;;;7.75;2.20;;;;;;;;;;10127542;28;20060;-71
2022/07/05 09:20:41;;;;;;;3.63;1.83;;;;;;;;;;10135378;28;20044;-69
2022/07/05 09:25:43;;;;;;;3.63;2.33;;;;;;;;;;10132133;28;20077;-69
2022/07/05 09:30:41;;;;;;;7.03;2.17;;;;;;;;;;10133474;28;20045;-69
2022/07/05 09:35:39;;;;;;;4.53;1.75;;;;;;;;;;10130622;28;20087;-69
2022/07/05 09:40:34;;;;;;;8.27;2.10;;;;;;;;;;10131338;28;20136;-71
2022/07/05 09:45:27;;;;;;;4.13;2.28;;;;;;;;;;10117874;28;20053;-70
2022/07/05 09:50:34;;;;;;;4.00;1.80;;;;;;;;;;10106647;28;20057;-70
2022/07/05 09:56:01;;;;;;;5.63;1.90;;;;;;;;;;10129322;28;20045;-69
2022/07/05 10:00:56;;;;;;;2.90;1.60;;;;;;;;;;10118137;28;20060;-70
2022/07/05 10:05:50;;;;;;;7.28;1.85;;;;;;;;;;10119768;28;20055;-70
2022/07/05 10:10:52;;;;;;;2.20;1.60;;;;;;;;;;10123925;28;20049;-71
2022/07/05 10:15:48;;;;;;;2.35;1.70;;;;;;;;;;10119305;28;20052;-70
2022/07/05 10:20:44;;;;;;;7.83;2.43;;;;;;;;;;10124150;28;20523;-69
2022/07/05 10:25:39;;;;;;;7.93;1.90;;;;;;;;;;10112110;28;20414;-70
2022/07/05 10:30:34;;;;;;;7.40;2.15;;;;;;;;;;10123572;28;20123;-70
2022/07/05 10:35:30;;;;;;;3.85;2.30;;;;;;;;;;10116533;28;20491;-70
2022/07/05 10:40:26;;;;;;;4.70;2.50;;;;;;;;;;10129216;28;20131;-70
2022/07/05 10:45:26;;;;;;;2.35;2.10;;;;;;;;;;10112488;28;20152;-70
2022/07/05 10:50:22;;;;;;;8.98;2.80;;;;;;;;;;10133761;28;20094;-70
2022/07/05 10:55:22;;;;;;;4.40;2.20;;;;;;;;;;10124198;28;20048;-70
2022/07/05 11:00:18;;;;;;;11.20;2.88;;;;;;;;;;10124219;28;20058;-70
2022/07/05 11:05:16;;;;;;;6.72;3.42;;;;;;;;;;10120079;28;20098;-70
2022/07/05 11:10:13;;;;;;;4.40;3.00;;;;;;;;;;10111835;28;20060;-70
2022/07/05 11:15:10;;;;;;;5.83;2.30;;;;;;;;;;10112417;28;20041;-70
2022/07/05 11:20:08;;;;;;;2.90;1.92;;;;;;;;;;10133459;28;20889;-70
2022/07/05 11:25:04;;;;;;;8.38;2.10;;;;;;;;;;10138018;28;20060;-71
2022/07/05 11:29:58;;;;;;;2.45;1.80;;;;;;;;;;10144886;28;20119;-72
2022/07/05 11:34:55;;;;;;;3.05;1.92;;;;;;;;;;10122211;28;20529;-71
2022/07/05 11:40:11;;;;;;;3.83;1.48;;;;;;;;;;10129433;28;20076;-70
2022/07/05 11:45:07;;;;;;;2.47;1.10;;;;;;;;;;10126926;28;20044;-71
2022/07/05 11:50:01;;;;;;;3.70;1.25;;;;;;;;;;10139946;28;20128;-72
2022/07/05 11:55:00;;;;;;;4.00;2.90;;;;;;;;;;10144879;28;20056;-71
2022/07/05 11:59:54;;;;;;;3.45;1.45;;;;;;;;;;10139124;28;20244;-71
2022/07/05 12:04:53;;;;;;;2.90;1.48;;;;;;;;;;10131363;28;20075;-71
2022/07/05 12:15:04;;;;;;;;;;;;;;;;;;10110807;28;20139;-71
2022/07/05 12:19:59;;;;;;;8.52;1.98;;;;;;;;;;10127840;28;19963;-71
2022/07/05 12:24:53;;;;;;;3.33;1.80;;;;;;;;;;10126986;28;20415;-71
2022/07/05 12:29:47;;;;;;;4.20;1.92;;;;;;;;;;10132868;28;20056;-71
2022/07/05 12:34:41;;;;;;;2.05;1.58;;;;;;;;;;10134867;28;20052;-71
2022/07/05 12:39:35;;;;;;;6.00;1.23;;;;;;;;;;10142250;28;20106;-71
2022/07/05 12:44:29;;;;;;;2.95;1.20;;;;;;;;;;10123326;28;20060;-71
2022/07/05 12:49:23;;;;;;;2.67;1.33;;;;;;;;;;10140550;28;20434;-70
2022/07/05 12:59:36;;;;;;;3.05;1.65;;;;;;;;;;10143832;28;20049;-71
2022/07/05 13:04:31;;;;;;;4.97;1.40;;;;;;;;;;10143929;28;20551;-70
2022/07/05 13:09:32;;;;;;;8.18;1.75;;;;;;;;;;10139891;28;20147;-71
2022/07/05 13:14:26;;;;;;;4.93;1.45;;;;;;;;;;10146875;28;20060;-71
2022/07/05 13:19:21;;;;;;;4.63;1.50;;;;;;;;;;10141908;28;20414;-70
2022/07/05 13:24:14;;;;;;;5.43;1.52;;;;;;;;;;10143781;28;20047;-70
2022/07/05 13:29:08;;;;;;;10.15;1.60;;;;;;;;;;10131492;28;20060;-71
2022/07/05 13:34:02;;;;;;;8.00;1.40;;;;;;;;;;10136767;28;20515;-70
2022/07/05 13:38:57;;;;;;;4.03;1.52;;;;;;;;;;10120347;28;20048;-70
2022/07/05 13:43:51;;;;;;;5.10;1.60;;;;;;;;;;10131675;28;20052;-70
2022/07/05 13:48:44;;;;;;;6.13;1.40;;;;;;;;;;10125483;28;20091;-69
2022/07/05 13:53:38;;;;;;;5.35;1.42;;;;;;;;;;10128370;28;20053;-71
2022/07/05 13:58:32;;;;;;;7.78;1.70;;;;;;;;;;10129351;28;20059;-69
2022/07/05 14:03:26;;;;;;;7.57;2.10;;;;;;;;;;10143592;28;20053;-69
2022/07/05 14:08:23;;;;;;;6.68;1.60;;;;;;;;;;10144932;28;20044;-69
2022/07/05 14:13:18;;;;;;;6.93;1.73;;;;;;;;;;10139587;28;20055;-70
2022/07/05 14:18:12;;;;;;;4.10;1.80;;;;;;;;;;10141472;28;20052;-70
2022/07/05 14:23:06;;;;;;;4.90;1.50;;;;;;;;;;10139366;28;20139;-70
2022/07/05 14:28:00;;;;;;;12.18;1.90;;;;;;;;;;10140589;28;20513;-70
2022/07/05 14:32:56;;;;;;;6.50;1.65;;;;;;;;;;10136994;28;20048;-71
2022/07/05 14:37:50;;;;;;;7.78;3.05;;;;;;;;;;10143566;28;20479;-70
2022/07/05 14:42:45;;;;;;;7.00;1.75;;;;;;;;;;10140460;28;20059;-70
2022/07/05 14:47:39;;;;;;;7.93;1.75;;;;;;;;;;10140004;28;20461;-70
2022/07/05 14:52:33;;;;;;;5.03;1.95;;;;;;;;;;10141442;28;20044;-70
2022/07/05 14:57:28;;;;;;;4.85;1.85;;;;;;;;;;10132494;28;20044;-70
2022/07/05 15:02:21;;;;;;;7.88;1.77;;;;;;;;;;10141226;28;20053;-70
2022/07/05 15:07:15;;;;;;;4.93;1.50;;;;;;;;;;10138099;28;20518;-71
2022/07/05 15:12:09;;;;;;;7.70;1.98;;;;;;;;;;10136227;28;20058;-70
2022/07/05 15:17:05;;;;;;;6.03;1.90;;;;;;;;;;10141472;28;20111;-68
2022/07/05 15:21:58;;;;;;;9.10;1.90;;;;;;;;;;10139409;28;20059;-70
2022/07/05 15:26:52;;;;;;;7.68;1.63;;;;;;;;;;10140643;28;20394;-71
2022/07/05 15:32:06;;;;;;;7.90;1.88;;;;;;;;;;10116875;28;20044;-71
2022/07/05 15:37:00;;;;;;;;;;;;;;;;;;10140377;28;20510;-71
2022/07/05 15:41:54;;;;;;;7.50;1.77;;;;;;;;;;10132546;28;20450;-71
2022/07/05 15:47:03;;;;;;;8.32;2.10;;;;;;;;;;10140775;28;20439;-71
2022/07/05 15:51:58;;;;;;;5.15;1.80;;;;;;;;;;10139058;28;20055;-70
2022/07/05 15:56:52;;;;;;;4.47;1.60;;;;;;;;;;10134013;28;20059;-70
2022/07/05 16:01:51;;;;;;;7.82;2.17;;;;;;;;;;10141680;28;20053;-70
2022/07/05 16:06:46;;;;;;;4.93;1.63;;;;;;;;;;10147874;28;20522;-70
2022/07/05 16:11:40;;;;;;;4.15;1.63;;;;;;;;;;10145366;28;20092;-70
2022/07/05 16:16:34;;;;;;;9.23;1.60;;;;;;;;;;10137836;28;20052;-70
2022/07/05 16:21:28;;;;;;;4.93;1.70;;;;;;;;;;10145062;28;20045;-70
2022/07/05 16:26:22;;;;;;;8.85;2.03;;;;;;;;;;10137850;28;20066;-70
2022/07/05 16:31:17;;;;;;;4.97;1.90;;;;;;;;;;10143909;28;20052;-70
2022/07/05 16:36:12;;;;;;;5.97;2.00;;;;;;;;;;10145536;28;20510;-69
2022/07/05 16:41:07;;;;;;;8.57;2.40;;;;;;;;;;10139508;28;20105;-71
2022/07/05 16:46:02;;;;;;;3.72;1.70;;;;;;;;;;10130801;28;20127;-70
2022/07/05 16:50:55;;;;;;;4.72;2.22;;;;;;;;;;10113217;28;20101;-68
2022/07/05 16:55:57;;;;;;;7.35;2.25;;;;;;;;;;10137278;28;20637;-70
2022/07/05 17:00:53;;;;;;;6.45;2.03;;;;;;;;;;10146198;28;20044;-71
2022/07/05 17:05:47;;;;;;;6.00;2.05;;;;;;;;;;10142965;28;20548;-71
2022/07/05 17:10:41;;;;;;;4.22;1.65;;;;;;;;;;10148328;28;20072;-71
2022/07/05 17:15:35;;;;;;;5.75;1.95;;;;;;;;;;10149760;28;20053;-71
2022/07/05 17:20:30;;;;;;;5.28;1.90;;;;;;;;;;10139789;28;20140;-71
2022/07/05 17:25:23;;;;;;;16.10;2.67;;;;;;;;;;10147562;28;20466;-71
2022/07/05 17:30:17;;;;;;;6.15;1.65;;;;;;;;;;10137020;28;20102;-71
2022/07/05 17:35:11;;;;;;;3.88;1.45;;;;;;;;;;10136012;28;20088;-72
2022/07/05 17:40:07;;;;;;;8.30;1.85;;;;;;;;;;10146231;28;20048;-71
2022/07/05 17:45:01;;;;;;;5.55;2.45;;;;;;;;;;10143398;28;20550;-71
2022/07/05 17:49:55;;;;;;;5.07;1.85;;;;;;;;;;10144482;28;20067;-70
2022/07/05 17:55:08;;;;;;;3.65;1.83;;;;;;;;;;10145953;28;20094;-71
2022/07/05 18:00:05;;;;;;;4.65;1.90;;;;;;;;;;10136630;28;20082;-74
2022/07/05 18:05:05;;;;;;;6.88;2.33;;;;;;;;;;10123806;28;20067;-69
2022/07/05 18:10:02;;;;;;;5.70;1.85;;;;;;;;;;10140113;28;20078;-72
2022/07/05 18:14:55;;;;;;;4.25;1.55;;;;;;;;;;10140794;28;20045;-72
2022/07/05 18:19:52;;;;;;;7.68;2.22;;;;;;;;;;10143513;28;20539;-72
2022/07/05 18:24:46;;;;;;;2.28;1.50;;;;;;;;;;10130731;28;20056;-72
2022/07/05 18:29:41;;;;;;;4.63;1.80;;;;;;;;;;10129127;28;20482;-69
2022/07/05 18:34:34;;;;;;;4.70;1.85;;;;;;;;;;10139518;28;20071;-71
2022/07/05 18:39:28;;;;;;;4.15;1.90;;;;;;;;;;10146238;28;20098;-71
2022/07/05 18:44:22;;;;;;;6.32;2.40;;;;;;;;;;10131871;28;20055;-70
2022/07/05 18:49:16;;;;;;;2.67;1.65;;;;;;;;;;10122280;28;20054;-73
2022/07/05 18:54:10;;;;;;;7.03;2.20;;;;;;;;;;10123962;28;20095;-70
2022/07/05 18:59:05;;;;;;;5.22;2.08;;;;;;;;;;10129402;28;20459;-70
2022/07/05 19:04:00;;;;;;;10.02;2.47;;;;;;;;;;10121362;28;20053;-70
2022/07/05 19:14:06;;;;;;;7.05;2.53;;;;;;;;;;10133668;28;20048;-70
2022/07/05 19:19:01;;;;;;;6.30;2.67;;;;;;;;;;10124867;28;20060;-71
2022/07/05 19:23:55;;;;;;;5.63;2.22;;;;;;;;;;10126788;28;20055;-69
2022/07/05 19:28:50;;;;;;;5.35;2.00;;;;;;;;;;10126091;28;20060;-69
2022/07/05 19:33:44;;;;;;;6.57;2.17;;;;;;;;;;10126723;28;20053;-71
2022/07/05 20:01:11;;;;;;;12.98;2.83;;;;;;;;;;10137935;28;20414;-71
2022/07/05 20:06:06;;;;;;;9.15;2.97;;;;;;;;;;10094743;28;20519;-71
2022/07/05 20:10:59;;;;;;;8.85;2.20;;;;;;;;;;10087107;28;20042;-72
2022/07/05 20:15:54;;;;;;;7.65;3.25;;;;;;;;;;10094963;28;20488;-71
2022/07/05 20:20:48;;;;;;;10.40;2.90;;;;;;;;;;10091927;28;20103;-71
2022/07/05 20:25:42;;;;;;;9.65;3.42;;;;;;;;;;10096646;28;20053;-71
2022/07/05 20:30:37;;;;;;;11.98;4.03;;;;;;;;;;10096511;28;20554;-72
2022/07/05 20:35:31;;;;;;;10.60;3.50;;;;;;;;;;10097112;28;20053;-72
2022/07/05 20:40:26;;;;;;;7.20;3.58;;;;;;;;;;10096244;28;20460;-71
2022/07/05 20:45:20;;;;;;;10.63;3.95;;;;;;;;;;10095603;28;20045;-72
2022/07/05 20:50:14;;;;;;;6.10;3.55;;;;;;;;;;10086005;28;20049;-71
2022/07/05 20:55:09;;;;;;;5.63;3.33;;;;;;;;;;10093601;28;20067;-68
2022/07/05 21:00:05;;;;;;;6.50;3.10;;;;;;;;;;10090253;28;20127;-71
2022/07/05 21:04:59;;;;;;;3.97;3.47;;;;;;;;;;10086928;28;20502;-72
2022/07/05 21:09:54;;;;;;;5.43;2.60;;;;;;;;;;10079475;28;20049;-63
2022/07/05 21:14:48;;;;;;;7.55;3.85;;;;;;;;;;10069088;28;20049;-64
2022/07/05 21:19:43;;;;;;;6.85;3.25;;;;;;;;;;10070522;28;20500;-64
2022/07/05 21:24:38;;;;;;;4.07;2.95;;;;;;;;;;10068829;28;20053;-63
2022/07/05 21:29:32;;;;;;;8.55;3.38;;;;;;;;;;10069376;28;20505;-63
2022/07/05 21:34:26;;;;;;;13.95;3.47;;;;;;;;;;10070522;28;20092;-63
2022/07/05 21:39:23;;;;;;;14.32;4.60;;;;;;;;;;10067340;28;20085;-63
2022/07/05 21:44:17;;;;;;;8.60;3.58;;;;;;;;;;10069443;28;20049;-63
2022/07/05 21:49:12;;;;;;;13.07;4.30;;;;;;;;;;10069755;28;20519;-63
2022/07/05 21:54:06;;;;;;;16.73;4.13;;;;;;;;;;10068529;28;20061;-63
2022/07/05 22:04:24;;;;;;;13.05;4.47;;;;;;;;;;10067594;28;20057;-63
2022/07/05 22:09:18;;;;;;;12.68;3.85;;;;;;;;;;10067955;28;20056;-63
2022/07/05 22:14:11;;;;;;;9.80;3.70;;;;;;;;;;10067552;28;20417;-63
2022/07/05 22:19:06;;;;;;;11.43;3.88;;;;;;;;;;10068626;28;20489;-63
2022/07/05 22:24:00;;;;;;;8.85;3.90;;;;;;;;;;10067149;28;20091;-63
2022/07/05 22:28:53;;;;;;;11.27;3.45;;;;;;;;;;10064576;28;20072;-64
2022/07/05 22:33:48;;;;;;;17.63;4.25;;;;;;;;;;10064735;28;20050;-63
2022/07/05 22:38:41;;;;;;;9.77;3.70;;;;;;;;;;10067265;28;20044;-63
2022/07/05 22:43:35;;;;;;;8.18;4.07;;;;;;;;;;10067198;28;20077;-63
2022/07/05 22:48:30;;;;;;;13.90;4.43;;;;;;;;;;10066169;28;20049;-62
2022/07/05 22:53:24;;;;;;;6.80;3.78;;;;;;;;;;10066951;28;20050;-62
2022/07/05 22:58:17;;;;;;;7.45;3.70;;;;;;;;;;10066238;28;20081;-64
2022/07/05 23:03:11;;;;;;;17.67;4.65;;;;;;;;;;10067563;28;20049;-64
2022/07/05 23:08:10;;;;;;;9.90;4.35;;;;;;;;;;10065282;28;20125;-63
2022/07/05 23:13:04;;;;;;;6.32;4.00;;;;;;;;;;10066868;28;20049;-63
2022/07/05 23:17:57;;;;;;;10.73;3.85;;;;;;;;;;10066470;28;20100;-63
2022/07/05 23:22:51;;;;;;;14.32;4.68;;;;;;;;;;10067032;28;20447;-64
2022/07/05 23:27:45;;;;;;;14.50;4.40;;;;;;;;;;10066683;28;20050;-63
2022/07/05 23:32:39;;;;;;;6.47;4.05;;;;;;;;;;10066407;28;20472;-63
2022/07/05 23:37:33;;;;;;;10.80;5.05;;;;;;;;;;10062088;28;20049;-64
2022/07/05 23:42:27;;;;;;;9.48;3.95;;;;;;;;;;10064631;28;20057;-64
2022/07/05 23:47:22;;;;;;;10.18;4.70;;;;;;;;;;10066191;28;20052;-64
2022/07/05 23:52:18;;;;;;;10.75;4.45;;;;;;;;;;10058937;28;20049;-64
2022/07/05 23:57:11;;;;;;;10.20;4.07;;;;;;;;;;10062887;28;20452;-65
